sensor_id;sensor_type;location;lat;lon;timestamp;temperature;humidity
4757;DHT22;2392;52.578;13.426;2022-12-29T00:01:25;8.40;99.90
4757;DHT22;2392;52.578;13.426;2022-12-29T00:03:52;8.40;99.90
4757;DHT22;2392;52.578;13.426;2022-12-29T00:06:19;8.40;99.90
4757;DHT22;2392;52.578;13.426;2022-12-29T00:08:46;8.40;99.90
4757;DHT22;2392;52.578;13.426;2022-12-29T00:11:15;8.40;99.90
4757;DHT22;2392;52.578;13.426;2022-12-29T00:13:43;8.40;99.90
4757;DHT22;2392;52.578;13.426;2022-12-29T00:16:30;8.40;99.90
4757;DHT22;2392;52.578;13.426;2022-12-29T00:18:57;8.40;99.90
4757;DHT22;2392;52.578;13.426;2022-12-29T00:21:25;8.50;99.90
4757;DHT22;2392;52.578;13.426;2022-12-29T00:24:12;8.50;99.90
4757;DHT22;2392;52.578;13.426;2022-12-29T00:27:07;8.50;99.90
4757;DHT22;2392;52.578;13.426;2022-12-29T00:29:53;8.50;99.90
4757;DHT22;2392;52.578;13.426;2022-12-29T00:32:38;8.50;99.90
4757;DHT22;2392;52.578;13.426;2022-12-29T00:35:26;8.50;99.90
4757;DHT22;2392;52.578;13.426;2022-12-29T00:37:55;8.60;99.90
4757;DHT22;2392;52.578;13.426;2022-12-29T00:40:41;8.50;99.90
4757;DHT22;2392;52.578;13.426;2022-12-29T00:43:25;8.50;99.90
4757;DHT22;2392;52.578;13.426;2022-12-29T00:46:10;8.50;99.90
4757;DHT22;2392;52.578;13.426;2022-12-29T00:48:38;8.50;99.90
4757;DHT22;2392;52.578;13.426;2022-12-29T00:51:23;8.50;99.90
4757;DHT22;2392;52.578;13.426;2022-12-29T00:53:50;8.50;99.90
4757;DHT22;2392;52.578;13.426;2022-12-29T00:56:16;8.50;99.90
4757;DHT22;2392;52.578;13.426;2022-12-29T00:58:43;8.50;99.90
4757;DHT22;2392;52.578;13.426;2022-12-29T01:01:10;8.50;99.90
4757;DHT22;2392;52.578;13.426;2022-12-29T01:03:39;8.50;99.90
4757;DHT22;2392;52.578;13.426;2022-12-29T01:06:08;8.50;99.90
4757;DHT22;2392;52.578;13.426;2022-12-29T01:08:37;8.50;99.90
4757;DHT22;2392;52.578;13.426;2022-12-29T01:11:06;8.50;99.90
4757;DHT22;2392;52.578;13.426;2022-12-29T01:13:33;8.50;99.90
4757;DHT22;2392;52.578;13.426;2022-12-29T01:16:00;8.50;99.90
4757;DHT22;2392;52.578;13.426;2022-12-29T01:18:27;8.50;99.90
4757;DHT22;2392;52.578;13.426;2022-12-29T01:21:00;8.50;99.90
4757;DHT22;2392;52.578;13.426;2022-12-29T01:23:27;8.50;99.90
4757;DHT22;2392;52.578;13.426;2022-12-29T01:25:55;8.50;99.90
4757;DHT22;2392;52.578;13.426;2022-12-29T01:28:23;8.50;99.90
4757;DHT22;2392;52.578;13.426;2022-12-29T01:30:50;8.50;99.90
4757;DHT22;2392;52.578;13.426;2022-12-29T01:33:18;8.50;99.90
4757;DHT22;2392;52.578;13.426;2022-12-29T01:35:45;8.50;99.90
4757;DHT22;2392;52.578;13.426;2022-12-29T01:38:13;8.50;99.90
4757;DHT22;2392;52.578;13.426;2022-12-29T01:40:44;8.50;99.90
4757;DHT22;2392;52.578;13.426;2022-12-29T01:43:13;8.50;99.90
4757;DHT22;2392;52.578;13.426;2022-12-29T01:45:44;8.60;99.90
4757;DHT22;2392;52.578;13.426;2022-12-29T01:48:13;8.60;99.90
4757;DHT22;2392;52.578;13.426;2022-12-29T01:50:43;8.60;99.90
4757;DHT22;2392;52.578;13.426;2022-12-29T01:53:17;8.60;99.90
4757;DHT22;2392;52.578;13.426;2022-12-29T01:55:48;8.60;99.90
4757;DHT22;2392;52.578;13.426;2022-12-29T01:58:18;8.60;99.90
4757;DHT22;2392;52.578;13.426;2022-12-29T02:00:46;8.60;99.90
4757;DHT22;2392;52.578;13.426;2022-12-29T02:03:14;8.60;99.90
4757;DHT22;2392;52.578;13.426;2022-12-29T02:05:47;8.50;99.90
4757;DHT22;2392;52.578;13.426;2022-12-29T02:08:18;8.50;99.90
4757;DHT22;2392;52.578;13.426;2022-12-29T02:10:47;8.50;99.90
4757;DHT22;2392;52.578;13.426;2022-12-29T02:13:15;8.50;99.90
4757;DHT22;2392;52.578;13.426;2022-12-29T02:15:50;8.50;99.90
4757;DHT22;2392;52.578;13.426;2022-12-29T02:18:28;8.50;99.90
4757;DHT22;2392;52.578;13.426;2022-12-29T02:21:41;8.50;99.90
4757;DHT22;2392;52.578;13.426;2022-12-29T02:24:32;8.50;99.90
4757;DHT22;2392;52.578;13.426;2022-12-29T02:27:36;8.50;99.90
4757;DHT22;2392;52.578;13.426;2022-12-29T02:30:37;8.50;99.90
4757;DHT22;2392;52.578;13.426;2022-12-29T02:33:12;8.50;99.90
4757;DHT22;2392;52.578;13.426;2022-12-29T02:35:47;8.50;99.90
4757;DHT22;2392;52.578;13.426;2022-12-29T02:38:25;8.60;99.90
4757;DHT22;2392;52.578;13.426;2022-12-29T02:40:57;8.60;99.90
4757;DHT22;2392;52.578;13.426;2022-12-29T02:43:33;8.60;99.90
4757;DHT22;2392;52.578;13.426;2022-12-29T02:46:07;8.70;99.90
4757;DHT22;2392;52.578;13.426;2022-12-29T02:48:40;8.70;99.90
4757;DHT22;2392;52.578;13.426;2022-12-29T02:51:10;8.70;99.90
4757;DHT22;2392;52.578;13.426;2022-12-29T02:53:39;8.80;99.90
4757;DHT22;2392;52.578;13.426;2022-12-29T02:56:24;8.80;99.90
4757;DHT22;2392;52.578;13.426;2022-12-29T02:58:51;8.80;99.90
4757;DHT22;2392;52.578;13.426;2022-12-29T03:01:29;8.80;99.90
4757;DHT22;2392;52.578;13.426;2022-12-29T03:04:09;8.90;99.90
4757;DHT22;2392;52.578;13.426;2022-12-29T03:06:51;8.90;99.90
4757;DHT22;2392;52.578;13.426;2022-12-29T03:09:29;9.00;99.90
4757;DHT22;2392;52.578;13.426;2022-12-29T03:12:00;9.00;99.90
4757;DHT22;2392;52.578;13.426;2022-12-29T03:14:55;9.10;99.90
4757;DHT22;2392;52.578;13.426;2022-12-29T03:17:53;9.10;99.90
4757;DHT22;2392;52.578;13.426;2022-12-29T03:20:24;9.10;99.90
4757;DHT22;2392;52.578;13.426;2022-12-29T03:22:59;9.20;99.90
4757;DHT22;2392;52.578;13.426;2022-12-29T03:25:30;9.20;99.90
4757;DHT22;2392;52.578;13.426;2022-12-29T03:28:01;9.20;99.90
4757;DHT22;2392;52.578;13.426;2022-12-29T03:30:36;9.20;99.90
4757;DHT22;2392;52.578;13.426;2022-12-29T03:33:10;9.30;99.90
4757;DHT22;2392;52.578;13.426;2022-12-29T03:35:42;9.30;99.90
4757;DHT22;2392;52.578;13.426;2022-12-29T03:38:14;9.30;99.90
4757;DHT22;2392;52.578;13.426;2022-12-29T03:40:45;9.30;99.90
4757;DHT22;2392;52.578;13.426;2022-12-29T03:43:16;9.40;99.90
4757;DHT22;2392;52.578;13.426;2022-12-29T03:45:45;9.40;99.90
4757;DHT22;2392;52.578;13.426;2022-12-29T03:48:14;9.40;99.90
4757;DHT22;2392;52.578;13.426;2022-12-29T03:50:42;9.40;99.90
4757;DHT22;2392;52.578;13.426;2022-12-29T03:53:09;9.40;99.90
4757;DHT22;2392;52.578;13.426;2022-12-29T03:55:38;9.40;99.90
4757;DHT22;2392;52.578;13.426;2022-12-29T03:58:05;9.40;99.90
4757;DHT22;2392;52.578;13.426;2022-12-29T04:00:58;9.40;99.90
4757;DHT22;2392;52.578;13.426;2022-12-29T04:03:26;9.50;99.90
4757;DHT22;2392;52.578;13.426;2022-12-29T04:05:53;9.50;99.90
4757;DHT22;2392;52.578;13.426;2022-12-29T04:08:21;9.50;99.90
4757;DHT22;2392;52.578;13.426;2022-12-29T04:10:48;9.50;99.90
4757;DHT22;2392;52.578;13.426;2022-12-29T04:13:17;9.60;99.90
4757;DHT22;2392;52.578;13.426;2022-12-29T04:15:44;9.60;99.90
4757;DHT22;2392;52.578;13.426;2022-12-29T04:18:12;9.60;99.90
4757;DHT22;2392;52.578;13.426;2022-12-29T04:20:40;9.60;99.90
4757;DHT22;2392;52.578;13.426;2022-12-29T04:23:25;9.60;99.90
4757;DHT22;2392;52.578;13.426;2022-12-29T04:25:53;9.60;99.90
4757;DHT22;2392;52.578;13.426;2022-12-29T04:28:20;9.60;99.90
4757;DHT22;2392;52.578;13.426;2022-12-29T04:30:53;9.70;99.90
4757;DHT22;2392;52.578;13.426;2022-12-29T04:33:25;9.70;99.90
4757;DHT22;2392;52.578;13.426;2022-12-29T04:35:54;9.70;99.90
4757;DHT22;2392;52.578;13.426;2022-12-29T04:38:23;9.70;99.90
4757;DHT22;2392;52.578;13.426;2022-12-29T04:40:51;9.70;99.90
4757;DHT22;2392;52.578;13.426;2022-12-29T04:43:21;9.80;99.90
4757;DHT22;2392;52.578;13.426;2022-12-29T04:46:04;9.70;99.90
4757;DHT22;2392;52.578;13.426;2022-12-29T04:48:54;9.70;99.90
4757;DHT22;2392;52.578;13.426;2022-12-29T04:51:46;9.70;99.90
4757;DHT22;2392;52.578;13.426;2022-12-29T04:54:14;9.70;99.90
4757;DHT22;2392;52.578;13.426;2022-12-29T04:56:44;9.70;99.90
4757;DHT22;2392;52.578;13.426;2022-12-29T04:59:13;9.70;99.90
4757;DHT22;2392;52.578;13.426;2022-12-29T05:01:42;9.80;99.90
4757;DHT22;2392;52.578;13.426;2022-12-29T05:04:10;9.80;99.90
4757;DHT22;2392;52.578;13.426;2022-12-29T05:06:37;9.80;99.90
4757;DHT22;2392;52.578;13.426;2022-12-29T05:09:05;9.80;99.90
4757;DHT22;2392;52.578;13.426;2022-12-29T05:11:34;9.80;99.90
4757;DHT22;2392;52.578;13.426;2022-12-29T05:14:02;9.80;99.90
4757;DHT22;2392;52.578;13.426;2022-12-29T05:16:29;9.80;99.90
4757;DHT22;2392;52.578;13.426;2022-12-29T05:18:57;9.80;99.90
4757;DHT22;2392;52.578;13.426;2022-12-29T05:21:24;9.80;99.90
4757;DHT22;2392;52.578;13.426;2022-12-29T05:23:51;9.80;99.90
4757;DHT22;2392;52.578;13.426;2022-12-29T05:26:20;9.90;99.90
4757;DHT22;2392;52.578;13.426;2022-12-29T05:29:10;9.90;99.90
4757;DHT22;2392;52.578;13.426;2022-12-29T05:31:36;9.90;99.90
4757;DHT22;2392;52.578;13.426;2022-12-29T05:34:05;9.90;99.90
4757;DHT22;2392;52.578;13.426;2022-12-29T05:36:32;9.90;99.90
4757;DHT22;2392;52.578;13.426;2022-12-29T05:39:01;9.90;99.90
4757;DHT22;2392;52.578;13.426;2022-12-29T05:41:30;9.90;99.90
4757;DHT22;2392;52.578;13.426;2022-12-29T05:44:20;9.90;99.90
4757;DHT22;2392;52.578;13.426;2022-12-29T05:46:52;10.00;99.90
4757;DHT22;2392;52.578;13.426;2022-12-29T05:49:32;10.00;99.90
4757;DHT22;2392;52.578;13.426;2022-12-29T05:52:08;10.00;99.90
4757;DHT22;2392;52.578;13.426;2022-12-29T05:54:35;10.10;99.90
4757;DHT22;2392;52.578;13.426;2022-12-29T05:57:10;10.10;99.90
4757;DHT22;2392;52.578;13.426;2022-12-29T05:59:38;10.10;99.90
4757;DHT22;2392;52.578;13.426;2022-12-29T06:02:05;10.10;99.90
4757;DHT22;2392;52.578;13.426;2022-12-29T06:04:32;10.20;99.90
4757;DHT22;2392;52.578;13.426;2022-12-29T06:06:59;10.20;99.90
4757;DHT22;2392;52.578;13.426;2022-12-29T06:09:55;10.20;99.90
4757;DHT22;2392;52.578;13.426;2022-12-29T06:12:24;10.30;99.90
4757;DHT22;2392;52.578;13.426;2022-12-29T06:14:53;10.30;99.90
4757;DHT22;2392;52.578;13.426;2022-12-29T06:17:21;10.30;99.90
4757;DHT22;2392;52.578;13.426;2022-12-29T06:19:52;10.40;99.90
4757;DHT22;2392;52.578;13.426;2022-12-29T06:22:20;10.40;99.90
4757;DHT22;2392;52.578;13.426;2022-12-29T06:24:47;10.40;99.90
4757;DHT22;2392;52.578;13.426;2022-12-29T06:27:14;10.40;99.90
4757;DHT22;2392;52.578;13.426;2022-12-29T06:29:43;10.40;99.90
4757;DHT22;2392;52.578;13.426;2022-12-29T06:32:10;10.50;99.90
4757;DHT22;2392;52.578;13.426;2022-12-29T06:34:41;10.50;99.90
4757;DHT22;2392;52.578;13.426;2022-12-29T06:37:10;10.50;99.90
4757;DHT22;2392;52.578;13.426;2022-12-29T06:39:37;10.50;99.90
4757;DHT22;2392;52.578;13.426;2022-12-29T06:42:09;10.50;99.90
4757;DHT22;2392;52.578;13.426;2022-12-29T06:44:43;10.60;99.90
4757;DHT22;2392;52.578;13.426;2022-12-29T06:47:10;10.60;99.90
4757;DHT22;2392;52.578;13.426;2022-12-29T06:49:37;10.60;99.90
4757;DHT22;2392;52.578;13.426;2022-12-29T06:52:05;10.60;99.90
4757;DHT22;2392;52.578;13.426;2022-12-29T06:54:32;10.60;99.90
4757;DHT22;2392;52.578;13.426;2022-12-29T06:56:59;10.60;99.90
4757;DHT22;2392;52.578;13.426;2022-12-29T06:59:26;10.70;99.90
4757;DHT22;2392;52.578;13.426;2022-12-29T07:01:54;10.70;99.90
4757;DHT22;2392;52.578;13.426;2022-12-29T07:04:21;10.70;99.90
4757;DHT22;2392;52.578;13.426;2022-12-29T07:06:48;10.60;99.90
4757;DHT22;2392;52.578;13.426;2022-12-29T07:09:15;10.60;99.90
4757;DHT22;2392;52.578;13.426;2022-12-29T07:11:42;10.60;99.90
4757;DHT22;2392;52.578;13.426;2022-12-29T07:14:10;10.60;99.90
4757;DHT22;2392;52.578;13.426;2022-12-29T07:16:38;10.60;99.90
4757;DHT22;2392;52.578;13.426;2022-12-29T07:19:06;10.60;99.90
4757;DHT22;2392;52.578;13.426;2022-12-29T07:21:33;10.60;99.90
4757;DHT22;2392;52.578;13.426;2022-12-29T07:24:00;10.50;99.90
4757;DHT22;2392;52.578;13.426;2022-12-29T07:26:27;10.50;99.90
4757;DHT22;2392;52.578;13.426;2022-12-29T07:28:54;10.60;99.90
4757;DHT22;2392;52.578;13.426;2022-12-29T07:31:22;10.50;99.90
4757;DHT22;2392;52.578;13.426;2022-12-29T07:33:49;10.60;99.90
4757;DHT22;2392;52.578;13.426;2022-12-29T07:36:17;10.60;99.90
4757;DHT22;2392;52.578;13.426;2022-12-29T07:38:44;10.50;99.90
4757;DHT22;2392;52.578;13.426;2022-12-29T07:41:11;10.50;99.90
4757;DHT22;2392;52.578;13.426;2022-12-29T07:43:39;10.50;99.90
4757;DHT22;2392;52.578;13.426;2022-12-29T07:46:24;10.40;99.90
4757;DHT22;2392;52.578;13.426;2022-12-29T07:48:51;10.50;99.90
4757;DHT22;2392;52.578;13.426;2022-12-29T07:51:20;10.40;99.90
4757;DHT22;2392;52.578;13.426;2022-12-29T07:53:47;10.50;99.90
4757;DHT22;2392;52.578;13.426;2022-12-29T07:56:13;10.50;99.90
4757;DHT22;2392;52.578;13.426;2022-12-29T07:58:41;10.60;99.90
4757;DHT22;2392;52.578;13.426;2022-12-29T08:01:09;10.60;99.90
4757;DHT22;2392;52.578;13.426;2022-12-29T08:03:35;10.60;99.90
4757;DHT22;2392;52.578;13.426;2022-12-29T08:06:03;10.60;99.90
4757;DHT22;2392;52.578;13.426;2022-12-29T08:08:32;10.60;99.90
4757;DHT22;2392;52.578;13.426;2022-12-29T08:10:59;10.60;99.90
4757;DHT22;2392;52.578;13.426;2022-12-29T08:13:26;10.60;99.90
4757;DHT22;2392;52.578;13.426;2022-12-29T08:15:53;10.70;99.90
4757;DHT22;2392;52.578;13.426;2022-12-29T08:18:20;10.70;99.90
4757;DHT22;2392;52.578;13.426;2022-12-29T08:20:47;10.70;99.90
4757;DHT22;2392;52.578;13.426;2022-12-29T08:23:14;10.70;99.90
4757;DHT22;2392;52.578;13.426;2022-12-29T08:25:42;10.70;99.90
4757;DHT22;2392;52.578;13.426;2022-12-29T08:28:09;10.70;99.90
4757;DHT22;2392;52.578;13.426;2022-12-29T08:30:36;10.70;99.90
4757;DHT22;2392;52.578;13.426;2022-12-29T08:33:03;10.80;99.90
4757;DHT22;2392;52.578;13.426;2022-12-29T08:35:30;10.70;99.90
4757;DHT22;2392;52.578;13.426;2022-12-29T08:37:57;10.70;99.90
4757;DHT22;2392;52.578;13.426;2022-12-29T08:40:24;10.70;99.90
4757;DHT22;2392;52.578;13.426;2022-12-29T08:42:52;10.70;99.90
4757;DHT22;2392;52.578;13.426;2022-12-29T08:45:19;10.70;99.90
4757;DHT22;2392;52.578;13.426;2022-12-29T08:47:46;10.70;99.90
4757;DHT22;2392;52.578;13.426;2022-12-29T08:50:13;10.80;99.90
4757;DHT22;2392;52.578;13.426;2022-12-29T08:52:40;10.70;99.90
4757;DHT22;2392;52.578;13.426;2022-12-29T08:55:08;10.80;99.90
4757;DHT22;2392;52.578;13.426;2022-12-29T08:57:36;10.80;99.90
4757;DHT22;2392;52.578;13.426;2022-12-29T09:00:23;10.90;99.90
4757;DHT22;2392;52.578;13.426;2022-12-29T09:02:51;10.90;99.90
4757;DHT22;2392;52.578;13.426;2022-12-29T09:05:18;11.00;99.90
4757;DHT22;2392;52.578;13.426;2022-12-29T09:07:45;11.00;99.90
4757;DHT22;2392;52.578;13.426;2022-12-29T09:10:12;11.10;99.90
4757;DHT22;2392;52.578;13.426;2022-12-29T09:12:39;11.10;99.90
4757;DHT22;2392;52.578;13.426;2022-12-29T09:15:07;11.10;99.90
4757;DHT22;2392;52.578;13.426;2022-12-29T09:17:36;11.10;99.90
4757;DHT22;2392;52.578;13.426;2022-12-29T09:20:10;11.20;99.90
4757;DHT22;2392;52.578;13.426;2022-12-29T09:22:37;11.20;99.90
4757;DHT22;2392;52.578;13.426;2022-12-29T09:25:05;11.20;99.90
4757;DHT22;2392;52.578;13.426;2022-12-29T09:27:32;11.20;99.90
4757;DHT22;2392;52.578;13.426;2022-12-29T09:30:00;11.20;99.90
4757;DHT22;2392;52.578;13.426;2022-12-29T09:32:27;11.20;99.90
4757;DHT22;2392;52.578;13.426;2022-12-29T09:34:55;11.30;99.90
4757;DHT22;2392;52.578;13.426;2022-12-29T09:37:22;11.30;99.90
4757;DHT22;2392;52.578;13.426;2022-12-29T09:39:49;11.40;99.90
4757;DHT22;2392;52.578;13.426;2022-12-29T09:42:21;11.50;99.90
4757;DHT22;2392;52.578;13.426;2022-12-29T09:44:56;11.50;99.90
4757;DHT22;2392;52.578;13.426;2022-12-29T09:47:26;11.50;99.90
4757;DHT22;2392;52.578;13.426;2022-12-29T09:49:58;11.50;99.90
4757;DHT22;2392;52.578;13.426;2022-12-29T09:52:31;11.50;99.90
4757;DHT22;2392;52.578;13.426;2022-12-29T09:55:01;11.70;99.90
4757;DHT22;2392;52.578;13.426;2022-12-29T09:57:34;11.80;99.90
4757;DHT22;2392;52.578;13.426;2022-12-29T10:00:08;11.90;99.90
4757;DHT22;2392;52.578;13.426;2022-12-29T10:02:43;12.10;99.90
4757;DHT22;2392;52.578;13.426;2022-12-29T10:05:27;12.20;99.90
4757;DHT22;2392;52.578;13.426;2022-12-29T10:08:09;12.30;99.90
4757;DHT22;2392;52.578;13.426;2022-12-29T10:10:40;12.40;99.90
4757;DHT22;2392;52.578;13.426;2022-12-29T10:13:22;12.30;99.90
4757;DHT22;2392;52.578;13.426;2022-12-29T10:15:57;12.20;99.90
4757;DHT22;2392;52.578;13.426;2022-12-29T10:18:52;12.20;99.90
4757;DHT22;2392;52.578;13.426;2022-12-29T10:21:35;12.10;99.90
4757;DHT22;2392;52.578;13.426;2022-12-29T10:24:07;12.00;99.90
4757;DHT22;2392;52.578;13.426;2022-12-29T10:26:39;12.00;99.90
4757;DHT22;2392;52.578;13.426;2022-12-29T10:29:13;12.10;99.90
4757;DHT22;2392;52.578;13.426;2022-12-29T10:31:44;12.50;99.90
4757;DHT22;2392;52.578;13.426;2022-12-29T10:34:19;12.90;99.90
4757;DHT22;2392;52.578;13.426;2022-12-29T10:36:50;13.40;99.90
4757;DHT22;2392;52.578;13.426;2022-12-29T10:39:22;13.70;99.90
4757;DHT22;2392;52.578;13.426;2022-12-29T10:41:53;13.70;99.90
4757;DHT22;2392;52.578;13.426;2022-12-29T10:44:22;13.60;99.90
4757;DHT22;2392;52.578;13.426;2022-12-29T10:46:55;13.50;99.90
4757;DHT22;2392;52.578;13.426;2022-12-29T10:49:25;13.60;99.90
4757;DHT22;2392;52.578;13.426;2022-12-29T10:51:56;14.00;99.90
4757;DHT22;2392;52.578;13.426;2022-12-29T10:54:27;14.30;99.90
4757;DHT22;2392;52.578;13.426;2022-12-29T10:57:00;14.20;99.90
4757;DHT22;2392;52.578;13.426;2022-12-29T10:59:30;14.00;99.90
4757;DHT22;2392;52.578;13.426;2022-12-29T11:02:10;13.80;99.90
4757;DHT22;2392;52.578;13.426;2022-12-29T11:04:49;13.70;99.90
4757;DHT22;2392;52.578;13.426;2022-12-29T11:07:20;13.50;99.90
4757;DHT22;2392;52.578;13.426;2022-12-29T11:09:48;13.40;99.90
4757;DHT22;2392;52.578;13.426;2022-12-29T11:12:21;13.20;99.90
4757;DHT22;2392;52.578;13.426;2022-12-29T11:15:11;13.10;99.90
4757;DHT22;2392;52.578;13.426;2022-12-29T11:17:44;13.00;99.90
4757;DHT22;2392;52.578;13.426;2022-12-29T11:20:31;12.90;99.90
4757;DHT22;2392;52.578;13.426;2022-12-29T11:23:00;12.80;99.90
4757;DHT22;2392;52.578;13.426;2022-12-29T11:25:27;12.80;99.90
4757;DHT22;2392;52.578;13.426;2022-12-29T11:27:56;12.80;99.90
4757;DHT22;2392;52.578;13.426;2022-12-29T11:30:25;12.80;99.90
4757;DHT22;2392;52.578;13.426;2022-12-29T11:32:54;12.80;99.90
4757;DHT22;2392;52.578;13.426;2022-12-29T11:35:30;12.80;99.90
4757;DHT22;2392;52.578;13.426;2022-12-29T11:38:00;12.80;99.90
4757;DHT22;2392;52.578;13.426;2022-12-29T11:40:28;12.80;99.90
4757;DHT22;2392;52.578;13.426;2022-12-29T11:42:58;12.70;99.90
4757;DHT22;2392;52.578;13.426;2022-12-29T11:45:26;12.70;99.90
4757;DHT22;2392;52.578;13.426;2022-12-29T11:47:56;12.70;99.90
4757;DHT22;2392;52.578;13.426;2022-12-29T11:50:27;12.70;99.90
4757;DHT22;2392;52.578;13.426;2022-12-29T11:53:00;12.60;99.90
4757;DHT22;2392;52.578;13.426;2022-12-29T11:55:29;12.60;99.90
4757;DHT22;2392;52.578;13.426;2022-12-29T11:57:59;12.60;99.90
4757;DHT22;2392;52.578;13.426;2022-12-29T12:00:29;12.50;99.90
4757;DHT22;2392;52.578;13.426;2022-12-29T12:02:59;12.50;99.90
4757;DHT22;2392;52.578;13.426;2022-12-29T12:05:37;12.40;99.90
4757;DHT22;2392;52.578;13.426;2022-12-29T12:08:09;12.30;99.90
4757;DHT22;2392;52.578;13.426;2022-12-29T12:10:43;12.30;99.90
4757;DHT22;2392;52.578;13.426;2022-12-29T12:13:18;12.20;99.90
4757;DHT22;2392;52.578;13.426;2022-12-29T12:15:52;12.00;99.90
4757;DHT22;2392;52.578;13.426;2022-12-29T12:18:32;11.90;99.90
4757;DHT22;2392;52.578;13.426;2022-12-29T12:21:08;11.70;99.90
4757;DHT22;2392;52.578;13.426;2022-12-29T12:23:54;11.60;99.90
4757;DHT22;2392;52.578;13.426;2022-12-29T12:26:30;11.50;99.90
4757;DHT22;2392;52.578;13.426;2022-12-29T12:29:01;11.50;99.90
4757;DHT22;2392;52.578;13.426;2022-12-29T12:31:41;11.40;99.90
4757;DHT22;2392;52.578;13.426;2022-12-29T12:34:15;11.40;99.90
4757;DHT22;2392;52.578;13.426;2022-12-29T12:36:53;11.30;99.90
4757;DHT22;2392;52.578;13.426;2022-12-29T12:39:34;11.30;99.90
4757;DHT22;2392;52.578;13.426;2022-12-29T12:42:13;11.40;99.90
4757;DHT22;2392;52.578;13.426;2022-12-29T12:44:49;11.30;99.90
4757;DHT22;2392;52.578;13.426;2022-12-29T12:47:36;11.30;99.90
4757;DHT22;2392;52.578;13.426;2022-12-29T12:50:22;11.30;99.90
4757;DHT22;2392;52.578;13.426;2022-12-29T12:53:03;11.30;99.90
4757;DHT22;2392;52.578;13.426;2022-12-29T12:55:46;11.40;99.90
4757;DHT22;2392;52.578;13.426;2022-12-29T12:58:21;11.40;99.90
4757;DHT22;2392;52.578;13.426;2022-12-29T13:01:00;11.40;99.90
4757;DHT22;2392;52.578;13.426;2022-12-29T13:03:43;11.40;99.90
4757;DHT22;2392;52.578;13.426;2022-12-29T13:06:18;11.30;99.90
4757;DHT22;2392;52.578;13.426;2022-12-29T13:11:55;11.30;99.90
4757;DHT22;2392;52.578;13.426;2022-12-29T13:14:39;11.30;99.90
4757;DHT22;2392;52.578;13.426;2022-12-29T13:17:15;11.30;99.90
4757;DHT22;2392;52.578;13.426;2022-12-29T13:19:50;11.30;99.90
4757;DHT22;2392;52.578;13.426;2022-12-29T13:22:24;11.30;99.90
4757;DHT22;2392;52.578;13.426;2022-12-29T13:25:06;11.30;99.90
4757;DHT22;2392;52.578;13.426;2022-12-29T13:27:46;11.30;99.90
4757;DHT22;2392;52.578;13.426;2022-12-29T13:30:18;11.30;99.90
4757;DHT22;2392;52.578;13.426;2022-12-29T13:32:53;11.30;99.90
4757;DHT22;2392;52.578;13.426;2022-12-29T13:35:38;11.30;99.90
4757;DHT22;2392;52.578;13.426;2022-12-29T13:38:12;11.20;99.90
4757;DHT22;2392;52.578;13.426;2022-12-29T13:40:43;11.20;99.90
4757;DHT22;2392;52.578;13.426;2022-12-29T13:43:13;11.20;99.90
4757;DHT22;2392;52.578;13.426;2022-12-29T13:45:42;11.20;99.90
4757;DHT22;2392;52.578;13.426;2022-12-29T13:48:15;11.20;99.90
4757;DHT22;2392;52.578;13.426;2022-12-29T13:50:47;11.20;99.90
4757;DHT22;2392;52.578;13.426;2022-12-29T13:53:22;11.20;99.90
4757;DHT22;2392;52.578;13.426;2022-12-29T13:55:55;11.20;99.90
4757;DHT22;2392;52.578;13.426;2022-12-29T13:58:31;11.20;99.90
4757;DHT22;2392;52.578;13.426;2022-12-29T14:01:03;11.20;99.90
4757;DHT22;2392;52.578;13.426;2022-12-29T14:03:44;11.30;99.90
4757;DHT22;2392;52.578;13.426;2022-12-29T14:06:24;11.30;99.90
4757;DHT22;2392;52.578;13.426;2022-12-29T14:08:54;11.30;99.90
4757;DHT22;2392;52.578;13.426;2022-12-29T14:11:23;11.20;99.90
4757;DHT22;2392;52.578;13.426;2022-12-29T14:13:56;11.20;99.90
4757;DHT22;2392;52.578;13.426;2022-12-29T14:16:34;11.20;99.90
4757;DHT22;2392;52.578;13.426;2022-12-29T14:19:10;11.20;99.90
4757;DHT22;2392;52.578;13.426;2022-12-29T14:21:39;11.20;99.90
4757;DHT22;2392;52.578;13.426;2022-12-29T14:24:26;11.20;99.90
4757;DHT22;2392;52.578;13.426;2022-12-29T14:26:53;11.20;99.90
4757;DHT22;2392;52.578;13.426;2022-12-29T14:29:43;11.20;99.90
4757;DHT22;2392;52.578;13.426;2022-12-29T14:32:36;11.10;99.90
4757;DHT22;2392;52.578;13.426;2022-12-29T14:35:37;11.10;99.90
4757;DHT22;2392;52.578;13.426;2022-12-29T14:38:06;11.10;99.90
4757;DHT22;2392;52.578;13.426;2022-12-29T14:40:34;11.10;99.90
4757;DHT22;2392;52.578;13.426;2022-12-29T14:43:01;11.10;99.90
4757;DHT22;2392;52.578;13.426;2022-12-29T14:45:30;11.10;99.90
4757;DHT22;2392;52.578;13.426;2022-12-29T14:47:58;11.10;99.90
4757;DHT22;2392;52.578;13.426;2022-12-29T14:50:33;11.10;99.90
4757;DHT22;2392;52.578;13.426;2022-12-29T14:53:04;11.10;99.90
4757;DHT22;2392;52.578;13.426;2022-12-29T14:55:37;11.10;99.90
4757;DHT22;2392;52.578;13.426;2022-12-29T14:58:06;11.10;99.90
4757;DHT22;2392;52.578;13.426;2022-12-29T15:00:41;11.10;99.90
4757;DHT22;2392;52.578;13.426;2022-12-29T15:03:16;11.10;99.90
4757;DHT22;2392;52.578;13.426;2022-12-29T15:05:45;11.10;99.90
4757;DHT22;2392;52.578;13.426;2022-12-29T15:08:17;11.10;99.90
4757;DHT22;2392;52.578;13.426;2022-12-29T15:10:48;11.10;99.90
4757;DHT22;2392;52.578;13.426;2022-12-29T15:13:22;11.10;99.90
4757;DHT22;2392;52.578;13.426;2022-12-29T15:15:50;11.10;99.90
4757;DHT22;2392;52.578;13.426;2022-12-29T15:18:24;11.20;99.90
4757;DHT22;2392;52.578;13.426;2022-12-29T15:20:54;11.20;99.90
4757;DHT22;2392;52.578;13.426;2022-12-29T15:23:22;11.20;99.90
4757;DHT22;2392;52.578;13.426;2022-12-29T15:25:53;11.30;99.90
4757;DHT22;2392;52.578;13.426;2022-12-29T15:28:21;11.20;99.90
4757;DHT22;2392;52.578;13.426;2022-12-29T15:30:55;11.00;99.90
4757;DHT22;2392;52.578;13.426;2022-12-29T15:33:24;10.80;99.90
4757;DHT22;2392;52.578;13.426;2022-12-29T15:35:54;10.60;99.90
4757;DHT22;2392;52.578;13.426;2022-12-29T15:38:22;10.50;99.90
4757;DHT22;2392;52.578;13.426;2022-12-29T15:40:53;10.40;99.90
4757;DHT22;2392;52.578;13.426;2022-12-29T15:43:42;10.40;99.90
4757;DHT22;2392;52.578;13.426;2022-12-29T15:46:13;10.30;99.90
4757;DHT22;2392;52.578;13.426;2022-12-29T15:48:40;10.30;99.90
4757;DHT22;2392;52.578;13.426;2022-12-29T15:51:17;10.20;99.90
4757;DHT22;2392;52.578;13.426;2022-12-29T15:53:47;10.20;99.90
4757;DHT22;2392;52.578;13.426;2022-12-29T15:56:15;10.20;99.90
4757;DHT22;2392;52.578;13.426;2022-12-29T15:58:44;10.20;99.90
4757;DHT22;2392;52.578;13.426;2022-12-29T16:01:19;10.10;99.90
4757;DHT22;2392;52.578;13.426;2022-12-29T16:03:51;10.10;99.90
4757;DHT22;2392;52.578;13.426;2022-12-29T16:06:32;10.10;99.90
4757;DHT22;2392;52.578;13.426;2022-12-29T16:09:02;10.10;99.90
4757;DHT22;2392;52.578;13.426;2022-12-29T16:11:33;10.10;99.90
4757;DHT22;2392;52.578;13.426;2022-12-29T16:14:02;10.20;99.90
4757;DHT22;2392;52.578;13.426;2022-12-29T16:16:37;10.20;99.90
4757;DHT22;2392;52.578;13.426;2022-12-29T16:19:12;10.20;99.90
4757;DHT22;2392;52.578;13.426;2022-12-29T16:21:41;10.30;99.90
4757;DHT22;2392;52.578;13.426;2022-12-29T16:24:12;10.30;99.90
4757;DHT22;2392;52.578;13.426;2022-12-29T16:26:46;10.40;99.90
4757;DHT22;2392;52.578;13.426;2022-12-29T16:29:14;10.40;99.90